Time,TemperatureF,DewpointF,PressureIn,WindDirection,WindDirectionDegrees,WindSpeedMPH,WindSpeedGustMPH,Humidity,HourlyPrecipIn,Conditions,Clouds,dailyrainin,SoftwareType,DateUTC
2013-01-21 00:00:00,37.9,33.5,30.11,North,0,2.0,5.0,84,0.00,,,-99.99,WeatherLink 5.4,2013-01-21 05:00:00,
2013-01-21 00:30:00,38.5,33.2,30.10,SE,135,1.0,3.0,81,0.00,,,-99.99,WeatherLink 5.4,2013-01-21 05:30:00,
2013-01-21 01:00:00,39.9,33.6,30.09,SE,135,0.0,3.0,78,0.00,,,-99.99,WeatherLink 5.4,2013-01-21 06:00:00,
2013-01-21 01:30:00,40.4,34.1,30.09,SE,135,0.0,2.0,78,0.00,,,-99.99,WeatherLink 5.4,2013-01-21 06:30:00,
2013-01-21 02:00:00,38.0,33.3,30.09,SE,135,1.0,3.0,83,0.00,,,-99.99,WeatherLink 5.4,2013-01-21 07:00:00,
2013-01-21 02:30:00,37.7,32.7,30.09,SE,135,0.0,1.0,82,0.00,,,-99.99,WeatherLink 5.4,2013-01-21 07:30:00,
2013-01-21 03:00:00,37.4,32.4,30.09,SE,135,0.0,2.0,82,0.00,,,-99.99,WeatherLink 5.4,2013-01-21 08:00:00,
2013-01-21 03:30:00,36.7,32.3,30.10,SE,135,0.0,2.0,84,0.00,,,-99.99,WeatherLink 5.4,2013-01-21 08:30:00,
2013-01-21 04:00:00,34.9,31.4,30.09,SE,135,0.0,2.0,87,0.00,,,-99.99,WeatherLink 5.4,2013-01-21 09:00:00,
2013-01-21 04:30:00,35.2,31.1,30.08,SE,135,0.0,2.0,85,0.00,,,-99.99,WeatherLink 5.4,2013-01-21 09:30:00,
2013-01-21 05:00:00,35.9,31.5,30.07,SE,135,0.0,3.0,84,0.00,,,-99.99,WeatherLink 5.4,2013-01-21 10:00:00,
2013-01-21 05:30:00,34.7,30.9,30.07,SE,135,0.0,2.0,86,0.00,,,-99.99,WeatherLink 5.4,2013-01-21 10:30:00,
2013-01-21 06:00:00,34.7,30.7,30.07,NNE,22,0.0,5.0,85,0.00,,,-99.99,WeatherLink 5.4,2013-01-21 11:00:00,
2013-01-21 06:30:00,34.4,30.4,30.07,NNE,22,0.0,3.0,85,0.00,,,-99.99,WeatherLink 5.4,2013-01-21 11:30:00,
2013-01-21 07:00:00,35.8,28.3,30.08,North,0,2.0,7.0,74,0.00,,,-99.99,WeatherLink 5.4,2013-01-21 12:00:00,
2013-01-21 07:30:00,36.4,30.8,30.08,North,0,1.0,4.0,80,0.00,,,-99.99,WeatherLink 5.4,2013-01-21 12:30:00,
2013-01-21 07:35:00,36.4,30.8,30.08,North,0,1.0,4.0,80,0.00,,,-99.99,WeatherLink 5.4,2013-01-21 12:35:00,
2013-01-21 08:00:00,34.4,29.2,30.08,North,0,0.0,3.0,81,0.00,,,-99.99,WeatherLink 5.4,2013-01-21 13:00:00,
2013-01-21 08:01:00,34.4,29.2,30.08,North,0,0.0,3.0,81,0.00,,,-99.99,WeatherLink 5.4,2013-01-21 13:01:00,
2013-01-21 08:06:00,34.0,28.8,30.08,East,86,0.0,0.0,81,0.00,,SKC,0.00,VWS V12.07,2013-01-21 13:06:00,
2013-01-21 08:30:00,34.0,28.8,30.09,East,90,0.0,3.0,81,0.00,,,-99.99,WeatherLink 5.4,2013-01-21 13:30:00,
2013-01-21 09:00:00,34.7,29.2,30.10,NNW,337,1.0,6.0,80,0.00,,,-99.99,WeatherLink 5.4,2013-01-21 14:00:00,
2013-01-21 09:30:00,36.0,29.8,30.11,NW,315,2.0,7.0,78,0.00,,,-99.99,WeatherLink 5.4,2013-01-21 14:30:00,
2013-01-21 10:00:00,39.4,29.0,30.10,NNW,337,7.0,12.0,66,0.00,,,-99.99,WeatherLink 5.4,2013-01-21 15:00:00,
2013-01-21 10:30:00,41.6,29.9,30.10,NW,315,8.0,15.0,63,0.00,,,-99.99,WeatherLink 5.4,2013-01-21 15:30:00,
2013-01-21 11:00:00,42.1,30.4,30.11,NW,315,8.0,15.0,63,0.00,,,-99.99,WeatherLink 5.4,2013-01-21 16:00:00,
2013-01-21 11:30:00,42.6,28.4,30.10,NNW,337,10.0,17.0,57,0.00,,,-99.99,WeatherLink 5.4,2013-01-21 16:30:00,
2013-01-21 12:00:00,43.1,25.7,30.09,NW,315,8.0,17.0,50,0.00,,,-99.99,WeatherLink 5.4,2013-01-21 17:00:00,
2013-01-21 12:30:00,43.5,28.8,30.07,NW,315,9.0,16.0,56,0.00,,,-99.99,WeatherLink 5.4,2013-01-21 17:30:00,
2013-01-21 13:00:00,43.3,27.8,30.06,NW,315,9.0,15.0,54,0.00,,,-99.99,WeatherLink 5.4,2013-01-21 18:00:00,
2013-01-21 13:30:00,43.9,27.9,30.06,NW,315,10.0,18.0,53,0.00,,,-99.99,WeatherLink 5.4,2013-01-21 18:30:00,
2013-01-21 14:00:00,44.1,28.0,30.05,NW,315,10.0,19.0,53,0.00,,,-99.99,WeatherLink 5.4,2013-01-21 19:00:00,
2013-01-21 14:30:00,44.5,27.0,30.05,NW,315,10.0,17.0,50,0.00,,,-99.99,WeatherLink 5.4,2013-01-21 19:30:00,
2013-01-21 15:00:00,44.0,27.0,30.06,NNW,337,13.0,22.0,51,0.00,,,-99.99,WeatherLink 5.4,2013-01-21 20:00:00,
2013-01-21 15:30:00,43.1,25.7,30.05,NNW,337,13.0,23.0,50,0.00,,,-99.99,WeatherLink 5.4,2013-01-21 20:30:00,
2013-01-21 16:00:00,43.3,24.9,30.06,NW,315,12.0,21.0,48,0.00,,,-99.99,WeatherLink 5.4,2013-01-21 21:00:00,
2013-01-21 16:30:00,42.5,22.6,30.07,NNW,337,13.0,22.0,45,0.00,,,-99.99,WeatherLink 5.4,2013-01-21 21:30:00,
2013-01-21 17:00:00,41.7,18.5,30.07,NNW,337,12.0,23.0,39,0.00,,,-99.99,WeatherLink 5.4,2013-01-21 22:00:00,
2013-01-21 17:30:00,40.4,18.0,30.07,NNW,337,16.0,31.0,40,0.00,,,-99.99,WeatherLink 5.4,2013-01-21 22:30:00,
2013-01-21 18:00:00,38.6,17.5,30.08,NNW,337,13.0,27.0,42,0.00,,,-99.99,WeatherLink 5.4,2013-01-21 23:00:00,
2013-01-21 18:30:00,37.3,17.4,30.08,NNW,337,12.0,20.0,44,0.00,,,-99.99,WeatherLink 5.4,2013-01-21 23:30:00,
2013-01-21 19:00:00,36.4,17.1,30.09,NNW,337,11.0,19.0,45,0.00,,,-99.99,WeatherLink 5.4,2013-01-22 00:00:00,
2013-01-21 19:30:00,35.9,17.1,30.09,NNW,337,12.0,20.0,46,0.00,,,-99.99,WeatherLink 5.4,2013-01-22 00:30:00,
2013-01-21 19:35:00,35.5,16.8,30.09,NW,325,8.0,13.0,46,0.00,,SKC,0.00,VWS V12.07,2013-01-22 00:35:00,
2013-01-21 20:00:00,35.2,17.0,30.09,NNW,337,9.0,15.0,47,0.00,,,-99.99,WeatherLink 5.4,2013-01-22 01:00:00,
2013-01-21 20:30:00,34.8,17.1,30.08,NNW,337,11.0,19.0,48,0.00,,,-99.99,WeatherLink 5.4,2013-01-22 01:30:00,
2013-01-21 21:00:00,34.0,17.3,30.09,NNW,337,13.0,20.0,50,0.00,,,-99.99,WeatherLink 5.4,2013-01-22 02:00:00,
2013-01-21 21:30:00,32.9,16.3,30.09,NNW,337,13.0,25.0,50,0.00,,,-99.99,WeatherLink 5.4,2013-01-22 02:30:00,
2013-01-21 22:00:00,31.6,16.4,30.09,NNW,337,13.0,21.0,53,0.00,,,-99.99,WeatherLink 5.4,2013-01-22 03:00:00,
2013-01-21 22:30:00,30.6,15.5,30.10,NNW,337,14.0,24.0,53,0.00,,,-99.99,WeatherLink 5.4,2013-01-22 03:30:00,
2013-01-21 23:00:00,29.8,15.2,30.10,NNW,337,12.0,19.0,54,0.00,,,-99.99,WeatherLink 5.4,2013-01-22 04:00:00,
2013-01-21 23:30:00,29.3,15.5,30.10,NNW,337,13.0,20.0,56,0.00,,,-99.99,WeatherLink 5.4,2013-01-22 04:30:00,